Bainbridge, New York
Current Conditions -  °F | °C
As of 9:53 PM on Monday 22 Dec 2014 (Local Time) from KBGM Reporting Station
Overcast Overcast  
Wind Chill: 27°   Ceiling: 300
Heat Index: 34°   Visibility: 8mi
Dew Point: 33°   Wind: 9mph
Humidity: 96%   Direction: 160°SSE
Pressure: 30.1"   Gusts: NA
Location:  42.29°N, 75.48°W
Report Text: KBGM 230253Z 16008KT 8SM OVC003 01/01 A3010 RMK AO2 SNB07E36 SLP209 P0001 60001 T00110006 58009
Loading
Personal Weather Stations






























Interactive Weather Map New forecast layout! Learn more

10-Day Weather Forecast

Advertisements
Track Severe Weather on mobile